Flight Track Log - Related Links

Times and Time Zones

All times are in EDT time to prevent confusion due to time zone crossing. See the FLG3861 flight status page for this flight to view local times or setup timezone preferences in your user account.

Time Position Orientation Groundspeed Altitude Reporting Facility
EDT Latitude Longitude Course Direction KTS MPH feet Rate Location/Type
Sun 09:51:59 PM 42.1942 -83.3597 90° East 164 189 1,800  Level Cleveland Center
Sun 09:53:00 PM 42.1381 -83.3519 174° South 212 244 4,000 1,769 Climbing Cleveland Center
Sun 09:53:17 PM 42.1350 -83.3525 188° South 192 221 4,100 1,923 Climbing Cleveland Center
Sun 09:54:18 PM 42.1061 -83.2786 118° Southeast 245 282 6,500 2,537 Climbing Cleveland Center
Sun 09:55:20 PM 42.1422 -83.1814 63° Northeast 261 300 9,300 2,293 Climbing Cleveland Center
Sun 09:56:21 PM 42.1736 -83.0833 67° East 283 326 11,200 1,415 Climbing Cleveland Center
Sun 09:57:00 PM 42.3500 -82.5006 90° East  Level FlightAware Approximate
Sun 09:57:23 PM 42.2089 -82.9686 67° East 330 380 12,200  Level Cleveland Center
Sun 09:58:24 PM 42.2489 -82.8428 67° East 361 415 13,400 1,171 Climbing Cleveland Center
Sun 09:59:26 PM 42.2906 -82.7094 67° East 383 441 14,600 1,171 Climbing Cleveland Center
Sun 10:00:27 PM 42.3336 -82.5694 67° East 400 460 15,800 1,317 Climbing Cleveland Center
Sun 10:01:29 PM 42.3669 -82.3928 76° East 415 478 17,300 1,171 Climbing Cleveland Center
Sun 10:02:30 PM 42.3608 -82.2339 93° East 421 484 18,200 927 Climbing Cleveland Center
Sun 10:03:32 PM 42.3536 -82.0747 93° East 426 490 19,200 1,024 Climbing Cleveland Center
Sun 10:04:33 PM 42.3464 -81.9103 93° East 430 495 20,300 1,024 Climbing Cleveland Center
Sun 10:05:35 PM 42.3386 -81.7467 94° East 430 495 21,300 1,024 Climbing Cleveland Center
Sun 10:06:36 PM 42.3319 -81.5844 93° East 430 495 22,400 1,024 Climbing Cleveland Center
Sun 10:07:38 PM 42.3231 -81.4206 94° East 431 496 23,400 976 Climbing Cleveland Center
Sun 10:08:39 PM 42.3147 -81.2569 94° East 431 496 24,400 976 Climbing Cleveland Center
Sun 10:09:41 PM 42.3064 -81.0933 94° East 431 496 25,400 1,038 Climbing Cleveland Center
Sun 10:11:44 PM 42.2878 -80.7383 95° East 434 499 27,600 848 Climbing Cleveland Center
Sun 10:12:45 PM 42.2792 -80.5753 94° East 430 495 28,000 195 Climbing Cleveland Center
Sun 10:13:47 PM 42.2694 -80.4047 94° East 448 516 28,000  Level Cleveland Center
Sun 10:14:49 PM 42.2603 -80.2297 94° East 457 526 28,000  Level Cleveland Center
Sun 10:15:50 PM 42.2492 -80.0575 95° East 458 527 28,000  Level Cleveland Center
Sun 10:16:51 PM 42.2400 -79.9072 95° East 437 503 28,000  Level Cleveland Center
Sun 10:17:53 PM 42.2292 -79.7447 95° East 436 502 28,000 -290 Level Cleveland Center
Sun 10:18:55 PM 42.2169 -79.5567 95° East 423 487 27,400 -780 Descending Cleveland Center
Sun 10:19:56 PM 42.2069 -79.3972 95° East 424 488 26,400 -984 Descending Cleveland Center
Sun 10:20:57 PM 42.1967 -79.2397 95° East 424 488 25,400 -976 Descending Cleveland Center
Sun 10:21:59 PM 42.1878 -79.0847 94° East 421 484 24,400 -976 Descending Cleveland Center
Sun 10:23:00 PM 42.1919 -78.9286 88° East 418 481 23,400 -683 Descending Cleveland Center
Sun 10:24:02 PM 42.1958 -78.7778 88° East 414 476 23,000 -195 Descending Cleveland Center
Sun 10:25:03 PM 42.1972 -78.6206 89° East 416 479 23,000  Level Cleveland Center
Sun 10:26:05 PM 42.2011 -78.4317 88° East 419 482 23,000  Level Cleveland Center
Sun 10:27:06 PM 42.2025 -78.2742 89° East 422 486 23,000 -341 Level Cleveland Center
Sun 10:28:08 PM 42.2039 -78.1172 89° East 422 486 22,300 -1,073 Descending Cleveland Center
Sun 10:29:09 PM 42.2050 -77.9625 89° East 422 486 20,800 -1,463 Descending Cleveland Center
Sun 10:30:11 PM 42.2056 -77.8156 90° East 404 465 19,300 -1,463 Descending Cleveland Center
Sun 10:31:12 PM 42.2075 -77.6703 89° East 398 458 17,800 -1,082 Descending Cleveland Center
Sun 10:32:13 PM 42.2072 -77.5253 90° East 395 455 17,100 -390 Descending Cleveland Center
Sun 10:33:15 PM 42.2089 -77.3567 89° East 383 441 17,000 -49 Descending Cleveland Center
Sun 10:34:16 PM 42.2094 -77.2167 90° East 378 435 17,000 -293 Level Cleveland Center
Sun 10:35:18 PM 42.2100 -77.0775 90° East 378 435 16,400 -1,073 Descending Cleveland Center
Sun 10:36:19 PM 42.2097 -76.9439 90° East 362 417 14,800 -1,525 Descending Cleveland Center
Sun 10:37:20 PM 42.2097 -76.8203 90° East 338 389 13,300 -1,463 Descending Cleveland Center
Sun 10:38:22 PM 42.2067 -76.6997 92° East 325 374 11,800 -1,268 Descending Cleveland Center
Sun 10:39:23 PM 42.1719 -76.5886 113° Southeast 321 369 10,700 -1,268 Descending Cleveland Center
Sun 10:40:25 PM 42.1406 -76.4736 110° East 278 320 9,200 -1,512 Descending Cleveland Center
Sun 10:41:26 PM 42.1111 -76.3803 113° Southeast 271 312 7,600 -1,525 Descending Cleveland Center
Sun 10:42:27 PM 42.0825 -76.2894 113° Southeast 270 311 6,100 -1,220 Descending Cleveland Center
Sun 10:43:29 PM 42.0533 -76.2022 114° Southeast 262 302 5,100 -488 Descending Cleveland Center
Sun 10:44:30 PM 42.0267 -76.1169 113° Southeast 253 291 5,100 -46 Level Cleveland Center
Sun 10:45:39 PM 41.9947 -76.0169 113° Southeast 242 278 5,000 -512 Descending New York Center
Sun 10:46:39 PM 42.0022 -75.9450 82° East 218 251 4,000 -500 Descending New York Center
Sun 10:47:39 PM 42.0114 -75.8733 80° East 205 236 4,000  Level New York Center
Sun 10:48:39 PM 42.0569 -75.8794 354° North 141 162 4,000  Level New York Center
Sun 10:49:39 PM 42.0981 -75.8939 345° North 141 162 4,000 -400 Level New York Center
Sun 10:50:39 PM 42.1344 -75.9192 333° Northwest 141 162 3,200 -750 Descending New York Center
Sun 10:51:39 PM 42.1644 -75.9467 326° Northwest 141 162 2,500 -700 Descending New York Center

Login

Don't have an account? Register now (free) for customized features, flight alerts, and more!